Traverse City, MI

6:39 PM EDT on July 04, 2015 (GMT -0400)
Hills of Westbrook | | Change Station
CLOSE
Current Station
Personal Weather Station
Location: Traverse City, MI
Elevation: 1043 ft
Nearby Weather Stations

Elev 1043 ft 44.76 °N, 85.69 °W | Updated 3 seconds ago

Partly Cloudy
Partly Cloudy
71.4 °F
Feels Like 75 °F
N
6.5
Wind Variable Wind from NNE
Gusts 7.4 mph

Today
High -- | Low -- °F
--% Chance of Precip.
Yesterday
High -- | Low -- °F
Precip. -- in
6:02 AM 9:31 PM
Waning Gibbous, 89% visible
Pressure 29.97 in
Visibility 10.0 miles
Clouds Clear
Heat Index 75 °F
Dew Point 60 °F
Humidity 66%
Rainfall 0.00 in
Snow Depth Not available.
UV 4 out of 12
Pollen 4.40 out of 12
Air Quality Not available.
Flu Activity Not available.
METAR KTVC 042153Z 03007KT 10SM CLR 24/14 A2997 RMK AO2 SLP148 T02390139

More Conditions Fewer Conditions

Pressure 29.97 in
Visibility 10.0 miles
Clouds Clear
Heat Index 75 °F
Dew Point 60 °F
Humidity 66%
Rainfall 0.00 in
Snow Depth Not available.
UV 4 out of 12
Pollen 4.40 out of 12
Air Quality Not available.
Flu Activity Not available.
METAR KTVC 042153Z 03007KT 10SM CLR 24/14 A2997 RMK AO2 SLP148 T02390139

More Conditions Fewer Conditions

Nowcast | as of 6:00 PM EDT on July 4, 2015

At 7 PM...mostly clear. Temperature 74. North winds 6 mph. At 9 PM...mostly clear. Temperature 69. Light winds. At 11 PM...mostly clear. Temperature 62. Light winds. At 1 am...mostly clear. Temperature 59. Light winds.

×

10-Day Weather Forecast

×

Almanac

Astronomy

Jul. 04, 2015 Rise Set
Actual Time
Civil Twilight
Nautical Twilight
Astronomical Twilight
Moon
Length of Visible Light
Length of Day
Tomorrow will be .
, % of the Moon is Illuminated

Today's Extremes

State Highs State Lows

Community

WunderPhotos

Upload Photos

1,835,105 photos uploaded!

WunderBlogs® & News

Nearby

Air Quality

  Air Quality AQ Index Pollutant
Not available.

Snow Depth

Station Depth Elevation

Earthquake Activity

City Distance Mag. Time & Date
Minimum magnitude displayed is 2.5.

Coastal Water Temperatures

Place Temperature

Stations

Nearby Weather Stations

Station Location Temp. Windchill Dew Point Humidity Wind Precip. Elev Updated Type